createdAt,value
2019-02-24T00:01:33.170Z,48.30
2019-02-24T00:04:02.161Z,48.90
2019-02-24T00:06:31.171Z,49.70
2019-02-24T00:09:00.179Z,51.20
2019-02-24T00:11:29.107Z,51.30
2019-02-24T00:13:58.106Z,51.60
2019-02-24T00:16:27.131Z,51.50
2019-02-24T00:18:56.142Z,50.20
2019-02-24T00:21:24.993Z,50.30
2019-02-24T00:23:53.994Z,49.50
2019-02-24T00:26:22.922Z,50.50
2019-02-24T00:28:51.781Z,50.60
2019-02-24T00:31:20.772Z,50.30
2019-02-24T00:33:49.689Z,49.80
2019-02-24T00:36:18.623Z,49.70
2019-02-24T00:38:47.851Z,50.40
2019-02-24T00:41:16.775Z,50.10
2019-02-24T00:43:45.710Z,50.20
2019-02-24T00:46:14.651Z,50.30
2019-02-24T00:48:43.617Z,51.30
2019-02-24T00:51:12.620Z,50.00
2019-02-24T00:53:41.477Z,52.00
2019-02-24T00:56:11.306Z,50.50
2019-02-24T00:58:40.485Z,49.90
2019-02-24T01:01:09.446Z,51.60
2019-02-24T01:03:38.410Z,50.80
2019-02-24T01:06:07.484Z,50.40
2019-02-24T01:08:36.505Z,50.30
2019-02-24T01:11:05.568Z,51.20
2019-02-24T01:13:34.429Z,50.40
2019-02-24T01:16:03.522Z,50.50
2019-02-24T01:18:32.452Z,50.80
2019-02-24T01:21:01.366Z,50.20
2019-02-24T01:23:30.632Z,51.10
2019-02-24T01:25:59.554Z,49.90
2019-02-24T01:28:28.401Z,50.60
2019-02-24T01:30:57.258Z,50.70
2019-02-24T01:33:26.274Z,50.60
2019-02-24T01:35:55.195Z,50.90
2019-02-24T01:38:24.139Z,51.30
2019-02-24T01:40:53.066Z,50.70
2019-02-24T01:43:21.901Z,51.60
2019-02-24T01:45:50.941Z,52.10
2019-02-24T01:48:21.158Z,51.60
2019-02-24T01:50:50.142Z,51.80
2019-02-24T01:53:19.089Z,51.60
2019-02-24T01:55:48.373Z,51.30
2019-02-24T01:58:17.474Z,50.60
2019-02-24T02:00:46.426Z,51.00
2019-02-24T02:03:15.371Z,50.50
2019-02-24T02:05:44.421Z,50.00
2019-02-24T02:08:13.436Z,50.60
2019-02-24T02:10:42.367Z,50.30
2019-02-24T02:13:11.302Z,51.10
2019-02-24T02:15:40.321Z,51.90
2019-02-24T02:18:09.256Z,51.80
2019-02-24T02:20:38.109Z,52.90
2019-02-24T02:23:07.118Z,52.00
2019-02-24T02:25:36.049Z,51.70
2019-02-24T02:28:05.047Z,51.30
2019-02-24T02:30:34.045Z,51.80
2019-02-24T02:33:02.967Z,52.30
2019-02-24T02:35:31.884Z,51.00
2019-02-24T02:38:00.849Z,51.40
2019-02-24T02:40:29.698Z,51.30
2019-02-24T02:42:58.620Z,51.00
2019-02-24T02:45:27.582Z,51.30
2019-02-24T02:47:56.506Z,50.50
2019-02-24T02:50:25.419Z,49.60
2019-02-24T02:52:54.350Z,50.80
2019-02-24T02:55:23.354Z,49.90
2019-02-24T02:57:52.199Z,50.50
2019-02-24T03:00:29.809Z,51.00
2019-02-24T03:02:58.718Z,50.80
2019-02-24T03:05:27.751Z,51.80
2019-02-24T03:08:01.427Z,51.00
2019-02-24T03:10:30.446Z,51.80
2019-02-24T03:13:01.146Z,51.60
2019-02-24T03:15:30.086Z,51.80
2019-02-24T03:17:58.993Z,51.70
2019-02-24T03:20:28.229Z,51.60
2019-02-24T03:22:57.107Z,51.70
2019-02-24T03:25:26.097Z,51.80
2019-02-24T03:27:54.947Z,52.10
2019-02-24T03:30:23.967Z,52.30
2019-02-24T03:32:52.887Z,52.90
2019-02-24T03:35:21.751Z,52.60
2019-02-24T03:37:50.615Z,52.70
2019-02-24T03:40:19.866Z,53.60
2019-02-24T03:42:48.866Z,53.90
2019-02-24T03:45:17.870Z,54.00
2019-02-24T03:47:48.895Z,53.70
2019-02-24T03:50:17.821Z,54.70
2019-02-24T03:52:46.897Z,53.70
2019-02-24T03:55:15.831Z,54.40
2019-02-24T03:57:44.809Z,54.70
2019-02-24T04:00:13.870Z,53.90
2019-02-24T04:02:42.874Z,54.70
2019-02-24T04:05:11.836Z,54.00
2019-02-24T04:07:41.188Z,55.50
2019-02-24T04:10:10.195Z,54.30
2019-02-24T04:12:39.269Z,54.60
2019-02-24T04:15:08.360Z,54.80
2019-02-24T04:17:37.414Z,55.40
2019-02-24T04:20:06.447Z,55.90
2019-02-24T04:22:35.420Z,56.00
2019-02-24T04:25:04.489Z,55.80
2019-02-24T04:27:33.427Z,55.40
2019-02-24T04:30:02.432Z,55.70
2019-02-24T04:32:31.349Z,55.10
2019-02-24T04:35:00.674Z,54.20
2019-02-24T04:37:29.641Z,55.70
2019-02-24T04:39:58.510Z,56.30
2019-02-24T04:42:27.377Z,56.20
2019-02-24T04:44:56.243Z,56.90
2019-02-24T04:47:25.151Z,56.80
2019-02-24T04:49:54.025Z,56.00
2019-02-24T04:52:22.985Z,56.30
2019-02-24T04:54:51.839Z,56.10
2019-02-24T04:57:20.770Z,56.60
2019-02-24T04:59:49.984Z,56.70
2019-02-24T05:02:18.974Z,56.20
2019-02-24T05:04:47.826Z,56.40
2019-02-24T05:07:16.808Z,57.00
2019-02-24T05:09:45.757Z,57.10
2019-02-24T05:12:14.956Z,56.60
2019-02-24T05:14:43.833Z,57.10
2019-02-24T05:17:12.717Z,57.30
2019-02-24T05:19:41.586Z,57.50
2019-02-24T05:22:10.554Z,57.10
2019-02-24T05:24:39.481Z,57.40
2019-02-24T05:27:08.429Z,57.10
2019-02-24T05:29:45.359Z,56.90
2019-02-24T05:32:08.214Z,57.10
2019-02-24T05:34:37.166Z,56.50
2019-02-24T05:37:06.413Z,56.90
2019-02-24T05:39:35.753Z,57.80
2019-02-24T05:42:04.762Z,57.90
2019-02-24T05:44:33.665Z,56.70
2019-02-24T05:47:02.509Z,56.70
2019-02-24T05:49:31.698Z,57.80
2019-02-24T05:52:00.734Z,57.60
2019-02-24T05:54:29.665Z,58.90
2019-02-24T05:56:59.009Z,58.30
2019-02-24T05:59:27.928Z,59.10
2019-02-24T06:01:56.866Z,58.00
2019-02-24T06:04:25.875Z,57.80
2019-02-24T06:06:54.841Z,58.50
2019-02-24T06:09:23.698Z,58.30
2019-02-24T06:11:52.630Z,57.70
2019-02-24T06:14:21.545Z,57.50
2019-02-24T06:16:50.499Z,57.70
2019-02-24T06:19:20.845Z,57.80
2019-02-24T06:21:49.778Z,57.70
2019-02-24T06:24:18.798Z,57.60
2019-02-24T06:26:47.988Z,58.30
2019-02-24T06:29:16.918Z,58.50
2019-02-24T06:31:45.900Z,57.60
2019-02-24T06:34:14.823Z,58.30
2019-02-24T06:36:43.685Z,57.90
2019-02-24T06:39:12.605Z,57.90
2019-02-24T06:41:41.853Z,57.40
2019-02-24T06:44:10.727Z,58.70
2019-02-24T06:46:39.665Z,57.40
2019-02-24T06:49:08.557Z,58.80
2019-02-24T06:51:37.571Z,58.30
2019-02-24T06:54:06.638Z,59.00
2019-02-24T06:56:35.560Z,59.10
2019-02-24T06:59:05.545Z,59.60
2019-02-24T07:01:34.525Z,60.30
2019-02-24T07:04:03.581Z,60.00
2019-02-24T07:06:32.517Z,60.00
2019-02-24T07:09:01.492Z,60.30
2019-02-24T07:11:30.497Z,60.20
2019-02-24T07:13:59.375Z,59.70
2019-02-24T07:16:28.371Z,59.70
2019-02-24T07:18:57.298Z,59.50
2019-02-24T07:21:26.757Z,60.10
2019-02-24T07:23:55.778Z,60.20
2019-02-24T07:26:24.700Z,59.10
2019-02-24T07:28:53.699Z,58.90
2019-02-24T07:31:22.726Z,59.00
2019-02-24T07:33:51.651Z,59.80
2019-02-24T07:36:20.604Z,61.60
2019-02-24T07:38:49.634Z,61.40
2019-02-24T07:41:18.906Z,59.80
2019-02-24T07:43:47.846Z,58.10
2019-02-24T07:46:16.710Z,55.70
2019-02-24T07:48:45.702Z,55.40
2019-02-24T07:51:14.737Z,53.80
2019-02-24T07:53:44.037Z,51.80
2019-02-24T07:56:12.963Z,51.20
2019-02-24T07:58:41.992Z,51.70
2019-02-24T08:01:10.945Z,48.40
2019-02-24T08:03:39.812Z,46.20
2019-02-24T08:06:08.860Z,44.30
2019-02-24T08:08:37.697Z,40.90
2019-02-24T08:11:06.721Z,42.50
2019-02-24T08:13:35.762Z,41.20
2019-02-24T08:16:04.747Z,37.70
2019-02-24T08:18:33.590Z,37.30
2019-02-24T08:21:02.584Z,36.00
2019-02-24T08:23:32.020Z,36.10
2019-02-24T08:26:01.259Z,35.70
2019-02-24T08:28:30.250Z,33.90
2019-02-24T08:30:59.186Z,30.70
2019-02-24T08:33:28.191Z,36.30
2019-02-24T08:35:57.165Z,30.20
2019-02-24T08:38:26.127Z,30.50
2019-02-24T08:40:55.153Z,27.70
2019-02-24T08:43:24.122Z,28.90
2019-02-24T08:45:53.579Z,28.30
2019-02-24T08:48:22.440Z,35.30
2019-02-24T08:50:51.346Z,30.60
2019-02-24T08:53:20.174Z,32.20
2019-02-24T08:55:49.127Z,30.30
2019-02-24T08:58:18.520Z,29.70
2019-02-24T09:00:50.972Z,30.20
2019-02-24T09:03:18.147Z,26.30
2019-02-24T09:05:47.198Z,28.10
2019-02-24T09:08:16.124Z,25.60
2019-02-24T09:10:45.178Z,26.30
2019-02-24T09:13:17.225Z,29.40
2019-02-24T09:15:46.546Z,26.40
2019-02-24T09:18:15.477Z,25.50
2019-02-24T09:20:44.374Z,29.40
2019-02-24T09:23:13.277Z,26.40
2019-02-24T09:25:42.647Z,28.50
2019-02-24T09:28:11.686Z,25.40
2019-02-24T09:30:41.708Z,22.40
2019-02-24T09:33:10.749Z,22.80
2019-02-24T09:35:39.898Z,23.60
2019-02-24T09:38:08.892Z,22.50
2019-02-24T09:40:38.172Z,23.90
2019-02-24T09:43:07.122Z,20.80
2019-02-24T09:45:36.057Z,25.10
2019-02-24T09:48:05.092Z,23.10
2019-02-24T09:50:34.170Z,24.20
2019-02-24T09:53:03.034Z,22.00
2019-02-24T09:55:31.898Z,23.10
2019-02-24T09:58:00.761Z,23.00
2019-02-24T10:00:29.779Z,22.60
2019-02-24T10:02:58.723Z,25.20
2019-02-24T10:05:27.666Z,22.50
2019-02-24T10:07:56.673Z,23.10
2019-02-24T10:10:25.615Z,22.90
2019-02-24T10:12:54.821Z,25.00
2019-02-24T10:15:23.840Z,22.70
2019-02-24T10:17:52.728Z,21.30
2019-02-24T10:20:21.677Z,22.00
2019-02-24T10:22:51.604Z,23.70
2019-02-24T10:25:20.643Z,23.70
2019-02-24T10:27:49.910Z,22.00
2019-02-24T10:30:19.211Z,21.70
2019-02-24T10:32:48.298Z,27.10
2019-02-24T10:35:17.460Z,21.00
2019-02-24T10:37:46.402Z,21.80
2019-02-24T10:40:15.467Z,22.50
2019-02-24T10:42:44.405Z,20.80
2019-02-24T10:45:13.962Z,20.50
2019-02-24T10:47:42.974Z,20.60
2019-02-24T10:50:12.947Z,23.90
2019-02-24T10:52:41.960Z,21.30
2019-02-24T10:55:11.078Z,20.00
2019-02-24T10:57:40.268Z,24.00
2019-02-24T11:00:11.447Z,21.90
2019-02-24T11:02:40.390Z,19.70
2019-02-24T11:05:09.776Z,21.50
2019-02-24T11:07:38.777Z,20.20
2019-02-24T11:10:08.215Z,26.30
2019-02-24T11:12:37.555Z,22.20
2019-02-24T11:15:06.990Z,19.50
2019-02-24T11:17:35.833Z,24.30
2019-02-24T11:20:06.278Z,22.60
2019-02-24T11:22:35.414Z,24.50
2019-02-24T11:25:04.522Z,21.30
2019-02-24T11:27:33.503Z,24.20
2019-02-24T11:30:02.561Z,20.60
2019-02-24T11:32:31.561Z,23.60
2019-02-24T11:35:00.436Z,23.70
2019-02-24T11:37:29.554Z,22.80
2019-02-24T11:39:58.411Z,22.90
2019-02-24T11:42:27.430Z,24.00
2019-02-24T11:44:56.423Z,23.50
2019-02-24T11:47:25.533Z,24.70
2019-02-24T11:49:54.418Z,24.30
2019-02-24T11:52:23.285Z,24.30
2019-02-24T11:54:52.229Z,24.70
2019-02-24T11:57:21.200Z,23.90
2019-02-24T11:59:50.078Z,24.20
2019-02-24T12:02:19.153Z,24.30
2019-02-24T12:04:48.102Z,24.80
2019-02-24T12:07:16.930Z,25.20
2019-02-24T12:09:45.858Z,26.00
2019-02-24T12:12:15.494Z,24.90
2019-02-24T12:14:44.855Z,26.40
2019-02-24T12:17:13.794Z,23.40
2019-02-24T12:19:42.661Z,25.20
2019-02-24T12:22:11.667Z,26.30
2019-02-24T12:24:40.582Z,25.20
2019-02-24T12:27:09.525Z,25.70
2019-02-24T12:29:38.446Z,24.90
2019-02-24T12:32:07.374Z,25.00
2019-02-24T12:34:36.298Z,25.80
2019-02-24T12:37:05.222Z,25.20
2019-02-24T12:39:34.159Z,26.00
2019-02-24T12:42:03.102Z,26.80
2019-02-24T12:44:31.945Z,26.70
2019-02-24T12:47:00.854Z,26.10
2019-02-24T12:49:29.814Z,25.30
2019-02-24T12:51:59.206Z,24.50
2019-02-24T12:54:28.170Z,25.20
2019-02-24T12:56:57.106Z,25.30
2019-02-24T12:59:26.074Z,23.30
2019-02-24T13:01:54.982Z,24.70
2019-02-24T13:04:24.270Z,24.30
2019-02-24T13:06:53.922Z,26.10
2019-02-24T13:09:22.831Z,25.70
2019-02-24T13:11:51.773Z,27.10
2019-02-24T13:14:20.723Z,26.60
2019-02-24T13:16:49.658Z,27.10
2019-02-24T13:19:18.518Z,27.20
2019-02-24T13:21:47.514Z,27.60
2019-02-24T13:24:16.360Z,27.70
2019-02-24T13:26:49.117Z,28.90
2019-02-24T13:29:26.953Z,28.30
2019-02-24T13:31:56.129Z,27.30
2019-02-24T13:34:25.062Z,26.70
2019-02-24T13:36:53.973Z,27.00
2019-02-24T13:39:22.847Z,27.20
2019-02-24T13:41:51.758Z,25.70
2019-02-24T13:44:20.733Z,24.90
2019-02-24T13:46:50.081Z,26.00
2019-02-24T13:49:19.001Z,26.60
2019-02-24T13:51:47.917Z,25.40
2019-02-24T13:54:16.941Z,25.70
2019-02-24T13:56:45.785Z,26.40
2019-02-24T13:59:14.690Z,26.90
2019-02-24T14:01:43.640Z,27.50
2019-02-24T14:04:12.549Z,27.20
2019-02-24T14:06:41.475Z,28.10
2019-02-24T14:09:10.497Z,27.80
2019-02-24T14:11:39.491Z,27.90
2019-02-24T14:14:09.896Z,27.20
2019-02-24T14:16:39.106Z,26.50
2019-02-24T14:19:08.078Z,26.10
2019-02-24T14:21:36.911Z,26.60
2019-02-24T14:24:05.916Z,26.20
2019-02-24T14:26:34.817Z,27.00
2019-02-24T14:29:03.736Z,26.80
2019-02-24T14:31:33.062Z,27.20
2019-02-24T14:34:01.945Z,25.80
2019-02-24T14:36:30.874Z,26.50
2019-02-24T14:38:59.793Z,26.00
2019-02-24T14:41:28.797Z,26.00
2019-02-24T14:43:57.642Z,25.70
2019-02-24T14:46:26.705Z,26.00
2019-02-24T14:48:55.654Z,25.60
2019-02-24T14:51:24.493Z,26.90
2019-02-24T14:53:53.769Z,26.60
2019-02-24T14:56:22.685Z,26.10
2019-02-24T14:58:51.677Z,26.00
2019-02-24T15:01:20.671Z,26.70
2019-02-24T15:03:49.582Z,27.10
2019-02-24T15:06:18.578Z,27.80
2019-02-24T15:08:47.527Z,27.80
2019-02-24T15:11:16.424Z,27.20
2019-02-24T15:13:45.280Z,26.60
2019-02-24T15:16:14.201Z,26.90
2019-02-24T15:18:43.190Z,26.60
2019-02-24T15:21:13.390Z,27.00
2019-02-24T15:23:42.621Z,26.30
2019-02-24T15:26:11.543Z,26.00
2019-02-24T15:28:40.918Z,26.10
2019-02-24T15:31:09.802Z,26.20
2019-02-24T15:33:39.234Z,27.00
2019-02-24T15:36:08.129Z,26.70
2019-02-24T15:38:37.067Z,27.20
2019-02-24T15:41:06.006Z,27.30
2019-02-24T15:43:34.921Z,26.20
2019-02-24T15:46:04.148Z,26.30
2019-02-24T15:48:32.981Z,25.60
2019-02-24T15:51:02.399Z,26.30
2019-02-24T15:53:31.255Z,25.90
2019-02-24T15:56:01.801Z,25.20
2019-02-24T15:58:30.729Z,26.00
2019-02-24T16:00:59.698Z,24.90
2019-02-24T16:03:28.626Z,24.70
2019-02-24T16:05:58.031Z,24.00
2019-02-24T16:08:27.041Z,25.60
2019-02-24T16:10:55.951Z,25.40
2019-02-24T16:13:24.877Z,25.60
2019-02-24T16:15:53.818Z,26.80
2019-02-24T16:18:22.658Z,26.50
2019-02-24T16:20:51.648Z,27.10
2019-02-24T16:23:20.514Z,27.30
2019-02-24T16:25:49.519Z,27.00
2019-02-24T16:28:18.414Z,27.70
2019-02-24T16:30:47.426Z,27.80
2019-02-24T16:33:16.349Z,27.90
2019-02-24T16:35:45.274Z,27.60
2019-02-24T16:38:14.177Z,28.30
2019-02-24T16:40:43.102Z,28.20
2019-02-24T16:43:12.106Z,28.50
2019-02-24T16:45:41.053Z,28.70
2019-02-24T16:48:09.914Z,28.70
2019-02-24T16:50:38.910Z,29.00
2019-02-24T16:53:07.938Z,28.60
2019-02-24T16:55:36.784Z,29.40
2019-02-24T16:58:05.617Z,29.50
2019-02-24T17:00:34.729Z,29.20
2019-02-24T17:03:03.833Z,29.00
2019-02-24T17:05:33.294Z,30.00
2019-02-24T17:08:02.385Z,30.00
2019-02-24T17:10:31.394Z,30.00
2019-02-24T17:13:01.844Z,30.10
2019-02-24T17:15:31.029Z,30.20
2019-02-24T17:18:00.022Z,30.40
2019-02-24T17:20:29.014Z,30.30
2019-02-24T17:22:57.941Z,30.70
2019-02-24T17:25:26.898Z,31.00
2019-02-24T17:27:56.117Z,30.90
2019-02-24T17:30:25.312Z,31.20
2019-02-24T17:32:54.273Z,31.20
2019-02-24T17:35:23.276Z,30.50
2019-02-24T17:37:52.275Z,30.60
2019-02-24T17:40:21.327Z,31.50
2019-02-24T17:42:50.281Z,31.40
2019-02-24T17:45:19.367Z,31.20
2019-02-24T17:47:48.327Z,31.90
2019-02-24T17:50:17.288Z,30.50
2019-02-24T17:52:46.349Z,30.90
2019-02-24T17:55:15.350Z,31.30
2019-02-24T17:57:44.356Z,31.20
2019-02-24T18:00:16.876Z,31.30
2019-02-24T18:02:45.818Z,31.20
2019-02-24T18:05:14.818Z,30.90
2019-02-24T18:07:43.775Z,28.80
2019-02-24T18:10:12.797Z,30.00
2019-02-24T18:12:41.710Z,32.00
2019-02-24T18:15:11.242Z,31.50
2019-02-24T18:17:40.233Z,30.40
2019-02-24T18:20:10.147Z,30.90
2019-02-24T18:22:39.166Z,31.00
2019-02-24T18:25:09.459Z,31.20
2019-02-24T18:27:38.462Z,31.10
2019-02-24T18:30:11.122Z,31.20
2019-02-24T18:32:40.047Z,30.90
2019-02-24T18:35:11.103Z,31.40
2019-02-24T18:37:40.066Z,33.40
2019-02-24T18:40:10.182Z,33.50
2019-02-24T18:42:39.593Z,35.10
2019-02-24T18:45:09.454Z,33.70
2019-02-24T18:47:38.904Z,33.70
2019-02-24T18:50:08.894Z,33.10
2019-02-24T18:52:38.747Z,33.40
2019-02-24T18:55:08.315Z,33.00
2019-02-24T18:57:37.210Z,32.50
2019-02-24T19:00:07.347Z,31.10
2019-02-24T19:02:36.662Z,30.00
2019-02-24T19:05:06.177Z,30.50
2019-02-24T19:07:35.204Z,32.10
2019-02-24T19:10:04.970Z,32.80
2019-02-24T19:12:33.965Z,32.40
2019-02-24T19:15:03.373Z,31.90
2019-02-24T19:17:32.370Z,30.60
2019-02-24T19:20:01.479Z,31.90
2019-02-24T19:22:30.912Z,30.70
2019-02-24T19:24:59.871Z,31.50
2019-02-24T19:27:28.795Z,31.60
2019-02-24T19:29:57.734Z,31.20
2019-02-24T19:32:27.061Z,32.40
2019-02-24T19:34:56.058Z,32.90
2019-02-24T19:37:25.015Z,33.00
2019-02-24T19:39:53.983Z,33.30
2019-02-24T19:42:23.303Z,32.40
2019-02-24T19:44:52.403Z,32.00
2019-02-24T19:47:21.248Z,32.70
2019-02-24T19:49:50.197Z,33.00
2019-02-24T19:52:19.389Z,34.70
2019-02-24T19:54:48.344Z,34.90
2019-02-24T19:57:17.266Z,36.40
2019-02-24T19:59:46.234Z,36.10
2019-02-24T20:02:15.499Z,36.50
2019-02-24T20:04:44.879Z,37.90
2019-02-24T20:07:14.009Z,38.00
2019-02-24T20:09:43.009Z,38.50
2019-02-24T20:12:12.026Z,38.10
2019-02-24T20:14:41.066Z,40.10
2019-02-24T20:17:10.285Z,39.80
2019-02-24T20:19:39.342Z,40.20
2019-02-24T20:22:08.320Z,40.80
2019-02-24T20:24:37.330Z,40.30
2019-02-24T20:27:06.452Z,40.30
2019-02-24T20:29:35.708Z,42.70
2019-02-24T20:32:04.806Z,42.90
2019-02-24T20:34:34.029Z,41.90
2019-02-24T20:37:02.881Z,41.80
2019-02-24T20:39:31.874Z,40.60
2019-02-24T20:42:00.732Z,41.70
2019-02-24T20:44:29.667Z,41.40
2019-02-24T20:46:58.680Z,41.60
2019-02-24T20:49:27.631Z,43.00
2019-02-24T20:51:56.838Z,41.60
2019-02-24T20:54:25.746Z,41.50
2019-02-24T20:56:54.592Z,38.30
2019-02-24T20:59:23.518Z,39.30
2019-02-24T21:01:52.508Z,40.10
2019-02-24T21:04:21.341Z,39.80
2019-02-24T21:06:50.285Z,40.30
2019-02-24T21:09:19.127Z,42.20
2019-02-24T21:11:48.129Z,40.80
2019-02-24T21:14:17.013Z,39.70
2019-02-24T21:16:45.940Z,39.30
2019-02-24T21:19:14.859Z,41.10
2019-02-24T21:21:44.196Z,41.10
2019-02-24T21:24:13.443Z,40.10
2019-02-24T21:26:42.297Z,40.50
2019-02-24T21:29:11.362Z,40.50
2019-02-24T21:31:40.622Z,39.80
2019-02-24T21:34:09.618Z,40.00
2019-02-24T21:36:38.642Z,39.90
2019-02-24T21:39:08.397Z,40.10
2019-02-24T21:41:37.234Z,41.30
2019-02-24T21:44:06.176Z,41.10
2019-02-24T21:46:35.022Z,41.40
2019-02-24T21:49:04.121Z,42.20
2019-02-24T21:51:33.154Z,41.80
2019-02-24T21:54:02.077Z,44.20
2019-02-24T21:56:31.153Z,43.70
2019-02-24T21:59:00.178Z,43.80
2019-02-24T22:01:29.219Z,42.60
2019-02-24T22:03:58.233Z,43.30
2019-02-24T22:06:27.254Z,42.90
2019-02-24T22:08:56.092Z,43.70
2019-02-24T22:11:24.937Z,44.00
2019-02-24T22:13:54.306Z,43.60
2019-02-24T22:16:23.214Z,44.20
2019-02-24T22:18:52.128Z,46.50
2019-02-24T22:21:21.073Z,46.30
2019-02-24T22:23:49.950Z,45.60
2019-02-24T22:26:18.942Z,45.50
2019-02-24T22:28:47.876Z,44.40
2019-02-24T22:31:16.898Z,45.90
2019-02-24T22:33:45.777Z,44.70
2019-02-24T22:36:14.863Z,44.70
2019-02-24T22:38:43.714Z,45.20
2019-02-24T22:41:12.578Z,45.90
2019-02-24T22:43:41.506Z,46.60
2019-02-24T22:46:10.417Z,48.40
2019-02-24T22:48:39.330Z,45.20
2019-02-24T22:51:08.271Z,46.90
2019-02-24T22:53:37.249Z,47.60
2019-02-24T22:56:06.246Z,46.90
2019-02-24T22:58:35.134Z,48.10
2019-02-24T23:01:14.940Z,49.40
2019-02-24T23:03:46.196Z,47.80
2019-02-24T23:06:15.496Z,48.70
2019-02-24T23:08:44.500Z,48.10
2019-02-24T23:11:13.595Z,47.60
2019-02-24T23:13:42.610Z,48.80
2019-02-24T23:16:11.601Z,49.30
2019-02-24T23:18:40.941Z,47.90
2019-02-24T23:21:09.853Z,50.00
2019-02-24T23:23:39.034Z,50.20
2019-02-24T23:26:08.026Z,50.00
2019-02-24T23:28:37.195Z,50.70
2019-02-24T23:31:06.175Z,50.10
2019-02-24T23:33:35.137Z,48.70
2019-02-24T23:36:04.123Z,50.30
2019-02-24T23:38:33.037Z,50.70
2019-02-24T23:41:02.361Z,51.20
2019-02-24T23:43:31.422Z,50.30
2019-02-24T23:46:00.340Z,50.80
2019-02-24T23:48:29.257Z,51.10
2019-02-24T23:50:58.094Z,51.10
2019-02-24T23:53:27.097Z,51.80
2019-02-24T23:55:56.092Z,52.00
2019-02-24T23:58:25.100Z,52.70
